createdAt,value
2022-11-12T00:00:52.830Z,6.96
2022-11-12T00:03:19.598Z,6.98
2022-11-12T00:05:46.783Z,7.03
2022-11-12T00:08:13.776Z,7.05
2022-11-12T00:10:40.184Z,7.13
2022-11-12T00:13:06.955Z,7.14
2022-11-12T00:15:33.332Z,7.20
2022-11-12T00:17:59.750Z,7.26
2022-11-12T00:20:26.124Z,7.33
2022-11-12T00:22:52.514Z,7.40
2022-11-12T00:25:19.044Z,7.37
2022-11-12T00:27:45.593Z,7.33
2022-11-12T00:30:12.688Z,7.36
2022-11-12T00:32:39.199Z,7.40
2022-11-12T00:35:08.711Z,7.42
2022-11-12T00:37:37.686Z,7.49
2022-11-12T00:40:04.663Z,7.56
2022-11-12T00:42:31.066Z,7.62
2022-11-12T00:44:57.395Z,7.64
2022-11-12T00:47:23.788Z,7.67
2022-11-12T00:49:50.222Z,7.71
2022-11-12T00:52:16.632Z,7.71
2022-11-12T00:54:43.006Z,7.76
2022-11-12T00:57:09.382Z,7.77
2022-11-12T00:59:35.800Z,7.79
2022-11-12T01:02:02.154Z,7.81
2022-11-12T01:04:28.590Z,7.80
2022-11-12T01:06:55.114Z,7.80
2022-11-12T01:09:21.510Z,7.83
2022-11-12T01:11:48.915Z,7.83
2022-11-12T01:14:15.387Z,7.84
2022-11-12T01:16:42.941Z,7.83
2022-11-12T01:19:11.736Z,7.85
2022-11-12T01:21:43.981Z,7.77
2022-11-12T01:24:11.365Z,7.86
2022-11-12T01:26:38.834Z,7.88
2022-11-12T01:29:05.604Z,7.88
2022-11-12T01:31:37.504Z,7.90
2022-11-12T01:34:07.405Z,7.89
2022-11-12T01:36:38.710Z,7.90
2022-11-12T01:39:07.346Z,7.93
2022-11-12T01:41:37.265Z,7.96
2022-11-12T01:44:19.657Z,8.00
2022-11-12T01:46:54.479Z,7.94
2022-11-12T01:49:36.702Z,7.97
2022-11-12T01:52:15.491Z,7.99
2022-11-12T01:54:49.654Z,8.02
2022-11-12T01:57:20.413Z,8.01
2022-11-12T01:59:51.362Z,7.98
2022-11-12T02:02:17.935Z,7.98
2022-11-12T02:04:45.001Z,7.97
2022-11-12T02:07:11.926Z,7.93
2022-11-12T02:09:38.500Z,7.90
2022-11-12T02:12:05.745Z,7.92
2022-11-12T02:14:32.696Z,7.89
2022-11-12T02:17:00.022Z,7.82
2022-11-12T02:19:26.595Z,7.80
2022-11-12T02:21:53.085Z,7.81
2022-11-12T02:24:19.390Z,7.82
2022-11-12T02:26:51.370Z,7.83
2022-11-12T02:29:17.812Z,7.75
2022-11-12T02:31:44.268Z,7.72
2022-11-12T02:34:10.750Z,7.54
2022-11-12T02:36:37.227Z,7.54
2022-11-12T02:39:04.041Z,7.51
2022-11-12T02:41:30.573Z,7.51
2022-11-12T02:43:57.014Z,7.48
2022-11-12T02:46:23.557Z,7.49
2022-11-12T02:48:49.909Z,7.52
2022-11-12T02:51:16.286Z,7.60
2022-11-12T02:53:42.650Z,7.66
2022-11-12T02:56:09.015Z,7.60
2022-11-12T02:58:35.455Z,7.58
2022-11-12T03:01:01.990Z,7.55
2022-11-12T03:03:28.385Z,7.60
2022-11-12T03:05:57.070Z,7.55
2022-11-12T03:08:24.571Z,7.52
2022-11-12T03:10:51.726Z,7.53
2022-11-12T03:13:18.123Z,7.53
2022-11-12T03:15:44.540Z,7.50
2022-11-12T03:18:10.938Z,7.53
2022-11-12T03:20:37.314Z,7.57
2022-11-12T03:23:06.597Z,7.47
2022-11-12T03:25:33.405Z,7.51
2022-11-12T03:28:08.912Z,7.46
2022-11-12T03:30:38.813Z,7.47
2022-11-12T03:33:06.531Z,7.45
2022-11-12T03:35:33.827Z,7.45
2022-11-12T03:38:01.390Z,7.47
2022-11-12T03:40:28.706Z,7.52
2022-11-12T03:42:55.199Z,7.58
2022-11-12T03:45:23.456Z,7.58
2022-11-12T03:47:52.582Z,7.48
2022-11-12T03:50:21.010Z,7.53
2022-11-12T03:52:49.301Z,7.53
2022-11-12T03:55:17.937Z,7.53
2022-11-12T03:57:44.936Z,7.52
2022-11-12T04:00:12.517Z,7.52
2022-11-12T04:02:38.925Z,7.47
2022-11-12T04:05:26.001Z,7.48
2022-11-12T04:08:16.836Z,7.55
2022-11-12T04:10:43.507Z,7.58
2022-11-12T04:13:28.196Z,7.55
2022-11-12T04:16:25.676Z,7.53
2022-11-12T04:19:14.579Z,7.51
2022-11-12T04:21:51.335Z,7.53
2022-11-12T04:24:45.680Z,7.55
2022-11-12T04:27:23.433Z,7.56
2022-11-12T04:30:09.733Z,7.50
2022-11-12T04:32:39.446Z,7.48
2022-11-12T04:35:07.787Z,7.52
2022-11-12T04:37:44.956Z,7.53
2022-11-12T04:40:43.677Z,7.51
2022-11-12T04:43:34.031Z,7.53
2022-11-12T04:46:01.504Z,7.61
2022-11-12T04:48:28.894Z,7.65
2022-11-12T04:51:01.016Z,7.55
2022-11-12T04:53:28.741Z,7.64
2022-11-12T04:55:57.592Z,7.60
2022-11-12T04:58:24.819Z,7.59
2022-11-12T05:00:51.860Z,7.57
2022-11-12T05:03:18.646Z,7.49
2022-11-12T05:05:45.105Z,7.54
2022-11-12T05:08:11.482Z,7.57
2022-11-12T05:10:37.933Z,7.55
2022-11-12T05:13:04.302Z,7.58
2022-11-12T05:15:30.668Z,7.57
2022-11-12T05:17:57.389Z,7.55
2022-11-12T05:20:23.769Z,7.57
2022-11-12T05:23:04.931Z,7.59
2022-11-12T05:25:31.791Z,7.59
2022-11-12T05:27:58.157Z,7.59
2022-11-12T05:30:24.648Z,7.51
2022-11-12T05:32:51.329Z,7.57
2022-11-12T05:35:17.812Z,7.54
2022-11-12T05:37:44.196Z,7.46
2022-11-12T05:40:10.938Z,7.48
2022-11-12T05:42:37.417Z,7.45
2022-11-12T05:45:04.343Z,7.46
2022-11-12T05:47:30.699Z,7.45
2022-11-12T05:49:57.108Z,7.47
2022-11-12T05:52:23.533Z,7.45
2022-11-12T05:54:50.025Z,7.41
2022-11-12T05:57:16.361Z,7.41
2022-11-12T05:59:42.812Z,7.42
2022-11-12T06:02:09.264Z,7.44
2022-11-12T06:04:35.660Z,7.44
2022-11-12T06:07:04.147Z,7.41
2022-11-12T06:09:30.708Z,7.43
2022-11-12T06:11:57.069Z,7.44
2022-11-12T06:14:23.447Z,7.43
2022-11-12T06:16:49.834Z,7.41
2022-11-12T06:19:16.173Z,7.27
2022-11-12T06:21:42.609Z,7.30
2022-11-12T06:24:09.475Z,7.29
2022-11-12T06:26:37.868Z,7.25
2022-11-12T06:29:04.301Z,7.20
2022-11-12T06:31:30.739Z,7.09
2022-11-12T06:33:58.135Z,7.10
2022-11-12T06:36:24.666Z,6.97
2022-11-12T06:38:51.086Z,6.93
2022-11-12T06:41:17.644Z,6.84
2022-11-12T06:43:44.146Z,6.72
2022-11-12T06:46:16.396Z,6.69
2022-11-12T06:48:42.988Z,6.66
2022-11-12T06:51:18.275Z,6.60
2022-11-12T06:53:45.112Z,6.52
2022-11-12T06:56:12.040Z,6.32
2022-11-12T06:58:38.825Z,6.27
2022-11-12T07:01:11.753Z,6.26
2022-11-12T07:03:40.012Z,6.16
2022-11-12T07:06:09.595Z,6.06
2022-11-12T07:08:36.025Z,6.01
2022-11-12T07:11:02.865Z,6.03
2022-11-12T07:13:34.325Z,5.96
2022-11-12T07:16:01.617Z,5.84
2022-11-12T07:18:29.613Z,5.75
2022-11-12T07:21:00.823Z,5.72
2022-11-12T07:23:28.145Z,5.72
2022-11-12T07:26:01.973Z,5.57
2022-11-12T07:28:29.899Z,5.57
2022-11-12T07:31:05.814Z,5.54
2022-11-12T07:33:33.635Z,5.57
2022-11-12T07:36:05.983Z,5.51
2022-11-12T07:38:34.941Z,5.41
2022-11-12T07:41:11.167Z,5.41
2022-11-12T07:43:39.331Z,5.49
2022-11-12T07:46:10.903Z,5.51
2022-11-12T07:48:38.541Z,5.36
2022-11-12T07:51:12.706Z,5.34
2022-11-12T07:53:39.625Z,5.12
2022-11-12T07:56:06.711Z,5.12
2022-11-12T07:58:34.329Z,5.19
2022-11-12T08:01:28.174Z,5.14
2022-11-12T08:03:54.757Z,5.32
2022-11-12T08:06:21.568Z,5.43
2022-11-12T08:08:47.975Z,5.46
2022-11-12T08:11:14.478Z,5.37
2022-11-12T08:13:40.887Z,5.43
2022-11-12T08:16:07.484Z,5.63
2022-11-12T08:18:34.239Z,5.76
2022-11-12T08:21:05.069Z,5.87
2022-11-12T08:23:31.650Z,5.80
2022-11-12T08:26:01.373Z,5.77
2022-11-12T08:28:35.755Z,5.89
2022-11-12T08:31:18.468Z,5.93
2022-11-12T08:33:45.218Z,5.96
2022-11-12T08:36:13.861Z,6.14
2022-11-12T08:38:41.053Z,6.15
2022-11-12T08:41:10.014Z,6.20
2022-11-12T08:43:37.239Z,6.23
2022-11-12T08:46:04.166Z,6.16
2022-11-12T08:48:31.534Z,6.18
2022-11-12T08:50:58.508Z,6.21
2022-11-12T08:53:25.265Z,6.26
2022-11-12T08:55:55.717Z,6.31
2022-11-12T08:58:22.719Z,6.50
2022-11-12T09:00:50.938Z,6.58
2022-11-12T09:03:19.790Z,6.60
2022-11-12T09:05:46.464Z,6.68
2022-11-12T09:08:17.429Z,6.78
2022-11-12T09:10:44.558Z,6.85
2022-11-12T09:13:11.450Z,6.99
2022-11-12T09:15:38.903Z,7.10
2022-11-12T09:18:10.600Z,7.22
2022-11-12T09:20:37.022Z,7.29
2022-11-12T09:23:08.907Z,7.26
2022-11-12T09:25:36.528Z,7.48
2022-11-12T09:28:10.102Z,7.63
2022-11-12T09:30:38.072Z,7.73
2022-11-12T09:33:04.901Z,7.85
2022-11-12T09:35:31.532Z,7.98
2022-11-12T09:37:59.437Z,8.20
2022-11-12T09:40:41.680Z,8.98
2022-11-12T09:43:26.130Z,9.63
2022-11-12T09:46:13.976Z,10.30
2022-11-12T09:48:47.413Z,10.84
2022-11-12T09:51:24.436Z,11.30
2022-11-12T09:53:56.513Z,11.81
2022-11-12T09:56:24.411Z,12.18
2022-11-12T09:58:52.251Z,12.44
2022-11-12T10:01:24.202Z,12.64
2022-11-12T10:04:09.128Z,13.01
2022-11-12T10:06:44.966Z,13.30
2022-11-12T10:09:19.530Z,13.36
2022-11-12T10:12:16.981Z,13.65
2022-11-12T10:15:21.365Z,14.09
2022-11-12T10:18:11.272Z,14.56
2022-11-12T10:20:50.233Z,14.72
2022-11-12T10:23:29.176Z,14.74
2022-11-12T10:25:59.908Z,15.12
2022-11-12T10:28:38.587Z,15.03
2022-11-12T10:31:17.598Z,15.12
2022-11-12T10:33:44.494Z,15.16
2022-11-12T10:36:28.844Z,15.52
2022-11-12T10:38:55.528Z,15.56
2022-11-12T10:41:28.094Z,15.98
2022-11-12T10:44:05.615Z,16.49
2022-11-12T10:46:37.619Z,16.21
2022-11-12T10:49:22.615Z,16.48
2022-11-12T10:51:57.855Z,16.68
2022-11-12T10:54:29.618Z,16.79
2022-11-12T10:56:56.357Z,16.34
2022-11-12T10:59:26.202Z,16.41
2022-11-12T11:01:58.650Z,16.90
2022-11-12T11:04:36.783Z,17.04
2022-11-12T11:07:07.391Z,17.28
2022-11-12T11:09:34.672Z,17.23
2022-11-12T11:12:01.158Z,17.54
2022-11-12T11:14:35.417Z,17.75
2022-11-12T11:17:08.340Z,18.09
2022-11-12T11:19:41.623Z,18.19
2022-11-12T11:22:18.417Z,17.97
2022-11-12T11:24:58.174Z,18.02
2022-11-12T11:28:17.557Z,17.90
2022-11-12T11:30:56.636Z,18.21
2022-11-12T11:33:32.646Z,17.96
2022-11-12T11:36:15.901Z,17.45
2022-11-12T11:38:57.657Z,17.55
2022-11-12T11:41:43.582Z,17.76
2022-11-12T11:44:14.228Z,17.56
2022-11-12T11:47:13.090Z,17.92
2022-11-12T11:50:04.334Z,18.24
2022-11-12T11:52:46.363Z,17.83
2022-11-12T11:55:45.164Z,17.73
2022-11-12T11:58:11.557Z,17.20
2022-11-12T12:00:51.163Z,16.36
2022-11-12T12:03:29.149Z,15.57
2022-11-12T12:06:07.002Z,14.99
2022-11-12T12:08:44.960Z,14.62
2022-11-12T12:11:20.475Z,14.57
2022-11-12T12:14:05.703Z,14.30
2022-11-12T12:16:48.026Z,14.21
2022-11-12T12:19:32.629Z,14.22
2022-11-12T12:22:01.345Z,13.99
2022-11-12T12:24:38.629Z,13.78
2022-11-12T12:27:24.814Z,13.86
2022-11-12T12:29:56.245Z,13.87
2022-11-12T12:32:27.569Z,13.86
2022-11-12T12:35:30.985Z,13.88
2022-11-12T12:38:20.562Z,13.85
2022-11-12T12:40:58.891Z,13.76
2022-11-12T12:43:45.196Z,13.73
2022-11-12T12:46:14.286Z,13.76
2022-11-12T12:48:43.749Z,13.72
2022-11-12T12:51:10.833Z,13.66
2022-11-12T12:53:37.638Z,13.60
2022-11-12T12:56:06.225Z,13.68
2022-11-12T12:58:48.227Z,13.70
2022-11-12T13:01:21.104Z,13.76
2022-11-12T13:04:11.858Z,13.67
2022-11-12T13:06:53.827Z,13.66
2022-11-12T13:09:26.173Z,13.65
2022-11-12T13:12:06.620Z,13.71
2022-11-12T13:14:36.129Z,13.75
2022-11-12T13:17:06.609Z,13.71
2022-11-12T13:19:58.199Z,13.69
2022-11-12T13:22:24.582Z,13.66
2022-11-12T13:25:26.423Z,13.68
2022-11-12T13:27:52.734Z,13.66
2022-11-12T13:30:41.991Z,13.63
2022-11-12T13:33:23.650Z,13.60
2022-11-12T13:35:50.144Z,13.60
2022-11-12T13:38:16.855Z,13.54
2022-11-12T13:41:08.755Z,13.44
2022-11-12T13:43:47.413Z,13.49
2022-11-12T13:46:33.942Z,13.41
2022-11-12T13:49:03.296Z,13.47
2022-11-12T13:51:35.253Z,13.53
2022-11-12T13:54:02.312Z,13.49
2022-11-12T13:56:31.764Z,13.48
2022-11-12T13:59:19.319Z,13.46
2022-11-12T14:01:47.342Z,13.48
2022-11-12T14:04:16.903Z,13.42
2022-11-12T14:06:46.760Z,13.36
2022-11-12T14:09:31.788Z,13.33
2022-11-12T14:12:05.971Z,13.27
2022-11-12T14:15:08.394Z,13.21
2022-11-12T14:17:47.079Z,13.16
2022-11-12T14:20:31.152Z,13.15
2022-11-12T14:23:09.425Z,13.12
2022-11-12T14:25:47.109Z,13.08
2022-11-12T14:28:30.832Z,13.10
2022-11-12T14:30:59.276Z,13.09
2022-11-12T14:33:27.808Z,13.06
2022-11-12T14:35:59.708Z,13.03
2022-11-12T14:38:37.067Z,12.96
2022-11-12T14:41:22.084Z,12.94
2022-11-12T14:44:07.431Z,12.88
2022-11-12T14:46:45.775Z,12.86
2022-11-12T14:49:21.728Z,12.86
2022-11-12T14:51:53.170Z,12.87
2022-11-12T14:54:28.770Z,12.85
2022-11-12T14:56:55.667Z,12.82
2022-11-12T14:59:22.402Z,12.86
2022-11-12T15:05:16.208Z,12.81
2022-11-12T15:07:54.852Z,12.77
2022-11-12T15:10:31.016Z,12.74
2022-11-12T15:13:09.616Z,12.71
2022-11-12T15:15:40.276Z,12.66
2022-11-12T15:18:21.624Z,12.63
2022-11-12T15:21:12.524Z,12.61
2022-11-12T15:23:50.457Z,12.57
2022-11-12T15:26:30.976Z,12.55
2022-11-12T15:29:10.095Z,12.52
2022-11-12T15:31:50.965Z,12.45
2022-11-12T15:34:38.397Z,12.38
2022-11-12T15:37:10.605Z,12.26
2022-11-12T15:39:43.247Z,12.16
2022-11-12T15:42:17.250Z,12.10
2022-11-12T15:44:44.224Z,12.12
2022-11-12T15:47:21.661Z,12.12
2022-11-12T15:49:53.357Z,12.09
2022-11-12T15:52:20.139Z,12.01
2022-11-12T15:54:46.892Z,11.94
2022-11-12T15:57:23.287Z,11.90
2022-11-12T16:00:08.478Z,11.85
2022-11-12T16:02:35.558Z,11.82
2022-11-12T16:05:02.224Z,11.80
2022-11-12T16:07:28.590Z,11.79
2022-11-12T16:09:55.104Z,11.79
2022-11-12T16:12:21.670Z,11.76
2022-11-12T16:14:48.043Z,11.77
2022-11-12T16:17:18.312Z,11.75
2022-11-12T16:19:44.739Z,11.69
2022-11-12T16:22:14.296Z,11.58
2022-11-12T16:24:41.871Z,11.49
2022-11-12T16:27:13.392Z,11.45
2022-11-12T16:29:40.081Z,11.37
2022-11-12T16:32:06.538Z,11.30
2022-11-12T16:34:32.923Z,11.32
2022-11-12T16:36:59.340Z,11.28
2022-11-12T16:39:25.749Z,11.13
2022-11-12T16:41:52.118Z,11.04
2022-11-12T16:44:18.530Z,10.97
2022-11-12T16:46:45.052Z,10.91
2022-11-12T16:49:13.095Z,10.84
2022-11-12T16:51:39.556Z,10.86
2022-11-12T16:54:06.556Z,10.86
2022-11-12T16:56:33.439Z,10.83
2022-11-12T16:59:00.208Z,10.72
2022-11-12T17:01:29.200Z,10.62
2022-11-12T17:03:57.045Z,10.53
2022-11-12T17:06:37.646Z,10.51
2022-11-12T17:09:05.443Z,10.35
2022-11-12T17:11:32.830Z,10.21
2022-11-12T17:14:04.661Z,10.18
2022-11-12T17:16:32.433Z,10.15
2022-11-12T17:19:01.360Z,10.06
2022-11-12T17:21:27.845Z,10.04
2022-11-12T17:23:55.430Z,10.06
2022-11-12T17:26:22.392Z,10.07
2022-11-12T17:28:51.552Z,9.90
2022-11-12T17:31:22.323Z,9.81
2022-11-12T17:33:50.815Z,9.75
2022-11-12T17:36:22.664Z,9.72
2022-11-12T17:38:49.275Z,9.77
2022-11-12T17:41:15.671Z,9.74
2022-11-12T17:43:42.141Z,9.75
2022-11-12T17:46:09.772Z,9.77
2022-11-12T17:48:37.496Z,9.83
2022-11-12T17:51:07.503Z,9.84
2022-11-12T17:53:34.609Z,9.82
2022-11-12T17:56:01.814Z,9.75
2022-11-12T17:58:28.827Z,9.74
2022-11-12T18:00:55.599Z,9.74
2022-11-12T18:03:21.997Z,9.74
2022-11-12T18:05:56.627Z,9.75
2022-11-12T18:08:23.139Z,9.78
2022-11-12T18:10:49.528Z,9.80
2022-11-12T18:13:15.917Z,9.82
2022-11-12T18:15:42.270Z,9.85
2022-11-12T18:18:08.644Z,9.86
2022-11-12T18:20:35.217Z,9.82
2022-11-12T18:23:01.550Z,9.76
2022-11-12T18:25:27.926Z,9.58
2022-11-12T18:27:54.386Z,9.72
2022-11-12T18:30:20.849Z,9.73
2022-11-12T18:32:47.308Z,9.67
2022-11-12T18:35:13.809Z,9.70
2022-11-12T18:37:41.212Z,9.65
2022-11-12T18:40:08.057Z,9.55
2022-11-12T18:42:34.493Z,9.47
2022-11-12T18:45:00.982Z,9.42
2022-11-12T18:47:29.627Z,9.40
2022-11-12T18:49:56.015Z,9.38
2022-11-12T18:52:22.384Z,9.36
2022-11-12T18:54:48.725Z,9.29
2022-11-12T18:57:15.157Z,9.26
2022-11-12T18:59:41.519Z,9.29
2022-11-12T19:02:11.160Z,9.32
2022-11-12T19:04:44.001Z,9.25
2022-11-12T19:07:11.672Z,9.21
2022-11-12T19:09:38.138Z,9.12
2022-11-12T19:12:05.039Z,9.09
2022-11-12T19:14:31.492Z,9.03
2022-11-12T19:16:57.860Z,8.90
2022-11-12T19:19:24.254Z,8.81
2022-11-12T19:21:50.722Z,8.78
2022-11-12T19:24:17.178Z,8.81
2022-11-12T19:26:43.714Z,8.83
2022-11-12T19:29:10.214Z,8.84
2022-11-12T19:31:36.853Z,8.81
2022-11-12T19:34:03.351Z,8.77
2022-11-12T19:36:29.848Z,8.77
2022-11-12T19:39:02.440Z,8.72
2022-11-12T19:41:29.143Z,8.69
2022-11-12T19:43:55.983Z,8.62
2022-11-12T19:46:22.452Z,8.58
2022-11-12T19:48:48.901Z,8.55
2022-11-12T19:51:15.419Z,8.57
2022-11-12T19:53:46.363Z,8.62
2022-11-12T19:56:17.202Z,8.60
2022-11-12T19:58:48.121Z,8.56
2022-11-12T20:01:17.698Z,8.55
2022-11-12T20:03:44.542Z,8.48
2022-11-12T20:06:16.681Z,8.42
2022-11-12T20:08:43.197Z,8.42
2022-11-12T20:11:10.235Z,8.46
2022-11-12T20:13:37.212Z,8.48
2022-11-12T20:16:12.819Z,8.57
2022-11-12T20:18:39.625Z,8.60
2022-11-12T20:21:06.400Z,8.57
2022-11-12T20:23:33.849Z,8.45
2022-11-12T20:26:08.731Z,8.36
2022-11-12T20:28:39.228Z,8.32
2022-11-12T20:31:06.876Z,8.32
2022-11-12T20:33:36.728Z,8.30
2022-11-12T20:36:12.536Z,8.28
2022-11-12T20:38:40.739Z,8.23
2022-11-12T20:41:12.110Z,8.18
2022-11-12T20:43:38.477Z,8.20
2022-11-12T20:46:05.002Z,8.20
2022-11-12T20:48:31.422Z,8.17
2022-11-12T20:51:23.279Z,8.11
2022-11-12T20:53:54.621Z,8.09
2022-11-12T20:56:26.887Z,8.15
2022-11-12T20:58:54.451Z,8.14
2022-11-12T21:01:23.008Z,8.18
2022-11-12T21:03:49.794Z,8.18
2022-11-12T21:06:18.824Z,8.18
2022-11-12T21:08:45.312Z,8.13
2022-11-12T21:11:14.349Z,8.12
2022-11-12T21:13:41.438Z,8.10
2022-11-12T21:16:09.195Z,8.12
2022-11-12T21:18:36.485Z,8.07
2022-11-12T21:21:08.703Z,7.98
2022-11-12T21:23:40.472Z,8.05
2022-11-12T21:26:14.093Z,8.06
2022-11-12T21:28:45.247Z,8.03
2022-11-12T21:31:17.386Z,7.98
2022-11-12T21:33:44.291Z,7.84
2022-11-12T21:36:16.139Z,7.94
2022-11-12T21:38:43.055Z,7.80
2022-11-12T21:41:14.972Z,7.77
2022-11-12T21:43:43.611Z,7.65
2022-11-12T21:46:12.056Z,7.61
2022-11-12T21:48:38.622Z,7.58
2022-11-12T21:51:09.836Z,7.54
2022-11-12T21:53:36.331Z,7.58
2022-11-12T21:56:08.498Z,7.58
2022-11-12T21:58:34.917Z,7.52
2022-11-12T22:01:21.796Z,7.50
2022-11-12T22:03:49.926Z,7.51
2022-11-12T22:06:17.551Z,7.54
2022-11-12T22:08:44.333Z,7.56
2022-11-12T22:11:15.643Z,7.55
2022-11-12T22:13:42.624Z,7.60
2022-11-12T22:16:10.966Z,7.58
2022-11-12T22:18:38.047Z,7.31
2022-11-12T22:21:07.485Z,7.29
2022-11-12T22:23:36.099Z,7.28
2022-11-12T22:26:11.486Z,7.30
2022-11-12T22:28:38.288Z,7.35
2022-11-12T22:31:13.877Z,7.37
2022-11-12T22:33:41.008Z,7.40
2022-11-12T22:36:12.981Z,7.40
2022-11-12T22:38:41.348Z,7.23
2022-11-12T22:41:10.428Z,7.29
2022-11-12T22:43:37.921Z,7.31
2022-11-12T22:46:14.181Z,7.34
2022-11-12T22:48:41.423Z,7.36
2022-11-12T22:51:13.394Z,7.37
2022-11-12T22:53:39.859Z,7.43
2022-11-12T22:56:08.578Z,7.44
2022-11-12T22:58:39.180Z,7.46
2022-11-12T23:01:11.071Z,7.44
2022-11-12T23:03:37.783Z,7.43
2022-11-12T23:06:06.001Z,7.44
2022-11-12T23:08:32.974Z,7.36
2022-11-12T23:11:08.141Z,7.34
2022-11-12T23:13:35.289Z,7.32
2022-11-12T23:16:01.893Z,7.30
2022-11-12T23:18:28.601Z,7.29
2022-11-12T23:21:01.516Z,7.27
2022-11-12T23:23:27.854Z,7.27
2022-11-12T23:25:54.432Z,7.28
2022-11-12T23:28:20.785Z,7.32
2022-11-12T23:30:52.750Z,7.26
2022-11-12T23:33:19.096Z,7.28
2022-11-12T23:35:45.656Z,7.24
2022-11-12T23:38:12.022Z,7.12
2022-11-12T23:40:38.596Z,7.13
2022-11-12T23:43:04.966Z,7.15
2022-11-12T23:45:36.090Z,7.11
2022-11-12T23:48:02.469Z,7.16
2022-11-12T23:50:28.809Z,7.17
2022-11-12T23:52:55.223Z,7.09
2022-11-12T23:55:21.636Z,7.00
2022-11-12T23:57:47.968Z,7.09
